Vancouver / Coquitlam Fire and Rescue Heliport

CFR6 · 不列颠哥伦比亚, 加拿大

使用的METAR站距离机场16 NM。
罗盘
风向 的 风向 100° 直升机
风: 9 kt, 3 beaufort
0 ft 6.000 12.000 18.000 24.000 30.000
Cloud Cloud
FEW 5.000
Cloud Cloud
FEW 23.000
METAR CYVR 140500Z 10009KT 20SM FEW050 FEW230 14/09 A2998 RMK SC1CI1 SLP155

METAR Vancouver / Coquitlam Fire and Rescue Heliport - CFR6

Vancouver / Coquitlam Fire and Rescue Heliport是,加拿大中的直升机场。 该机场位于纬度49,29162和经度-122,79215。 该机场的伪ICAO代码为CFR6。 机场在Vancouver FIR中。

该航空气象观测是针对Vancouver International Airport在2024年6月13日 22:00, 当地时间进行的。

机场观察

风向为100°,速度为9 kt。

可见度为20 mi。

有几云在5.000 ft的高度 和 几云在23.000 ft的高度。 没有观察到天花板。

温度和风寒是14 °C。 露点为9 °C,相对湿度为72%。 海平面上的气压为29,98 inHg (QNH)。

白天

今天,太阳从05:04升起,在21:18降落。 这适用于Vancouver / Coquitlam Fire and Rescue Heliport,世界夏令时可能有所不同。 当地时间与世界标准时间之间的时差为-7 小时。 夏令时目前正在进行中。

公司介绍

我们没有关于这个机场的公司信息。

体会

到Vliegles.nl去找飞行课程,跳伞和其他飞行体验。 浏览页面,了解Vancouver / Coquitlam Fire and Rescue Heliport附近所有可用的活动。 你也可以使用搜索功能来寻找你所在地附近的特定飞行课程、跳伞或其他飞行体验。

乌云

5.000 ft FEW 几云
23.000 ft FEW 几云

温度 & 天气

温度 14 °C
露点 9 °C
相对湿度 72%
Kp-index 1 (0-9)

评论

SLP155海平面压力为29,99 inHg (29,99 inHg)
SC1CI1

白天

日出
05:06 (6:30)
中午
13:13
日落
21:19

小工具

你想在你的网站上有一个关于Vancouver / Coquitlam Fire and Rescue Heliport的当前航空天气(METAR)的小部件吗?

显示HTML代码
报告变更